createdAt,value
2023-05-24T00:00:56.858Z,100.00
2023-05-24T00:03:28.189Z,100.00
2023-05-24T00:05:56.003Z,100.00
2023-05-24T00:08:23.093Z,100.00
2023-05-24T00:10:50.556Z,100.00
2023-05-24T00:13:17.848Z,100.00
2023-05-24T00:15:45.222Z,100.00
2023-05-24T00:18:12.126Z,100.00
2023-05-24T00:20:42.157Z,100.00
2023-05-24T00:23:11.653Z,100.00
2023-05-24T00:25:39.070Z,100.00
2023-05-24T00:28:06.005Z,100.00
2023-05-24T00:30:33.270Z,100.00
2023-05-24T00:33:00.473Z,100.00
2023-05-24T00:35:27.777Z,100.00
2023-05-24T00:37:54.704Z,100.00
2023-05-24T00:40:21.891Z,100.00
2023-05-24T00:42:50.804Z,100.00
2023-05-24T00:45:18.242Z,100.00
2023-05-24T00:47:45.836Z,100.00
2023-05-24T00:50:14.562Z,100.00
2023-05-24T00:52:42.127Z,100.00
2023-05-24T00:55:09.807Z,100.00
2023-05-24T00:57:37.269Z,100.00
2023-05-24T01:00:05.406Z,100.00
2023-05-24T01:02:34.821Z,100.00
2023-05-24T01:09:31.236Z,100.00
2023-05-24T01:12:17.292Z,100.00
2023-05-24T01:15:04.989Z,100.00
2023-05-24T01:17:37.593Z,100.00
2023-05-24T01:20:09.103Z,100.00
2023-05-24T01:22:55.328Z,100.00
2023-05-24T01:25:33.901Z,100.00
2023-05-24T01:28:04.270Z,100.00
2023-05-24T01:30:31.383Z,100.00
2023-05-24T01:32:58.656Z,100.00
2023-05-24T01:35:25.779Z,100.00
2023-05-24T01:37:53.138Z,100.00
2023-05-24T01:40:20.208Z,100.00
2023-05-24T01:42:59.831Z,100.00
2023-05-24T01:45:34.402Z,100.00
2023-05-24T01:48:07.288Z,100.00
2023-05-24T01:50:43.497Z,100.00
2023-05-24T01:53:13.354Z,100.00
2023-05-24T01:55:40.812Z,100.00
2023-05-24T01:58:09.630Z,100.00
2023-05-24T02:00:39.146Z,100.00
2023-05-24T02:03:06.907Z,100.00
2023-05-24T02:05:33.962Z,100.00
2023-05-24T02:08:06.180Z,100.00
2023-05-24T02:10:33.421Z,100.00
2023-05-24T02:13:00.723Z,100.00
2023-05-24T02:15:30.522Z,100.00
2023-05-24T02:17:58.684Z,100.00
2023-05-24T02:20:26.626Z,100.00
2023-05-24T02:22:54.186Z,100.00
2023-05-24T02:25:21.109Z,100.00
2023-05-24T02:27:48.708Z,100.00
2023-05-24T02:30:18.228Z,100.00
2023-05-24T02:32:47.954Z,100.00
2023-05-24T02:35:15.061Z,100.00
2023-05-24T02:37:42.463Z,100.00
2023-05-24T02:40:09.903Z,100.00
2023-05-24T02:42:37.155Z,100.00
2023-05-24T02:45:04.288Z,100.00
2023-05-24T02:47:31.694Z,100.00
2023-05-24T02:49:58.596Z,100.00
2023-05-24T02:52:26.857Z,100.00
2023-05-24T02:54:54.001Z,100.00
2023-05-24T02:57:22.862Z,100.00
2023-05-24T02:59:50.631Z,100.00
2023-05-24T03:02:19.598Z,100.00
2023-05-24T03:04:48.958Z,100.00
2023-05-24T03:07:16.466Z,100.00
2023-05-24T03:09:43.340Z,100.00
2023-05-24T03:12:10.569Z,100.00
2023-05-24T03:14:38.236Z,100.00
2023-05-24T03:17:08.673Z,100.00
2023-05-24T03:19:35.630Z,100.00
2023-05-24T03:22:02.988Z,100.00
2023-05-24T03:24:29.937Z,100.00
2023-05-24T03:26:57.630Z,100.00
2023-05-24T03:29:24.652Z,100.00
2023-05-24T03:31:53.994Z,100.00
2023-05-24T03:34:21.066Z,100.00
2023-05-24T03:36:48.390Z,100.00
2023-05-24T03:39:15.462Z,100.00
2023-05-24T03:41:55.155Z,100.00
2023-05-24T03:44:22.104Z,100.00
2023-05-24T03:46:49.343Z,100.00
2023-05-24T03:49:16.538Z,100.00
2023-05-24T03:51:44.222Z,100.00
2023-05-24T03:54:11.392Z,100.00
2023-05-24T03:57:19.384Z,100.00
2023-05-24T03:59:47.099Z,100.00
2023-05-24T04:02:14.751Z,100.00
2023-05-24T04:04:44.666Z,100.00
2023-05-24T04:07:16.602Z,100.00
2023-05-24T04:09:43.762Z,100.00
2023-05-24T04:12:11.879Z,100.00
2023-05-24T04:14:42.062Z,100.00
2023-05-24T04:17:10.125Z,100.00
2023-05-24T04:23:42.445Z,100.00
2023-05-24T04:26:11.145Z,100.00
2023-05-24T04:28:38.544Z,100.00
2023-05-24T04:31:06.354Z,100.00
2023-05-24T04:33:34.382Z,100.00
2023-05-24T04:36:02.018Z,100.00
2023-05-24T04:38:36.344Z,100.00
2023-05-24T04:41:03.397Z,100.00
2023-05-24T04:43:30.680Z,100.00
2023-05-24T04:45:57.905Z,100.00
2023-05-24T04:48:25.202Z,100.00
2023-05-24T04:50:52.725Z,100.00
2023-05-24T04:53:20.353Z,100.00
2023-05-24T04:55:50.249Z,100.00
2023-05-24T04:58:19.858Z,100.00
2023-05-24T05:00:47.142Z,100.00
2023-05-24T05:03:14.649Z,100.00
2023-05-24T05:05:41.941Z,100.00
2023-05-24T05:08:09.810Z,100.00
2023-05-24T05:10:37.297Z,100.00
2023-05-24T05:13:04.778Z,100.00
2023-05-24T05:15:32.770Z,100.00
2023-05-24T05:18:02.667Z,100.00
2023-05-24T05:20:29.706Z,100.00
2023-05-24T05:22:56.962Z,100.00
2023-05-24T05:25:23.909Z,100.00
2023-05-24T05:27:51.203Z,100.00
2023-05-24T05:30:18.212Z,100.00
2023-05-24T05:32:47.922Z,100.00
2023-05-24T05:35:14.872Z,100.00
2023-05-24T05:37:44.566Z,100.00
2023-05-24T05:40:11.802Z,100.00
2023-05-24T05:42:39.156Z,100.00
2023-05-24T05:45:06.429Z,100.00
2023-05-24T05:47:33.771Z,100.00
2023-05-24T05:50:00.874Z,100.00
2023-05-24T05:52:28.036Z,100.00
2023-05-24T05:54:54.960Z,100.00
2023-05-24T05:57:24.457Z,100.00
2023-05-24T05:59:51.768Z,100.00
2023-05-24T06:02:19.303Z,100.00
2023-05-24T06:04:47.036Z,100.00
2023-05-24T06:07:14.341Z,100.00
2023-05-24T06:09:43.713Z,100.00
2023-05-24T06:12:11.059Z,100.00
2023-05-24T06:14:40.837Z,100.00
2023-05-24T06:17:08.221Z,100.00
2023-05-24T06:19:35.113Z,100.00
2023-05-24T06:22:02.872Z,100.00
2023-05-24T06:24:29.895Z,100.00
2023-05-24T06:26:57.219Z,99.81
2023-05-24T06:29:25.427Z,100.00
2023-05-24T06:31:53.100Z,100.00
2023-05-24T06:34:23.109Z,100.00
2023-05-24T06:36:51.757Z,100.00
2023-05-24T06:39:19.083Z,99.67
2023-05-24T06:41:47.365Z,100.00
2023-05-24T06:44:17.180Z,95.82
2023-05-24T06:46:44.691Z,85.77
2023-05-24T06:49:13.915Z,81.59
2023-05-24T06:51:41.181Z,82.65
2023-05-24T06:54:08.145Z,73.77
2023-05-24T06:56:35.719Z,73.28
2023-05-24T06:59:02.666Z,78.42
2023-05-24T07:01:29.999Z,67.76
2023-05-24T07:03:57.048Z,61.77
2023-05-24T07:06:27.956Z,60.41
2023-05-24T07:08:54.978Z,69.94
2023-05-24T07:11:24.747Z,79.10
2023-05-24T07:13:51.729Z,77.43
2023-05-24T07:16:19.103Z,64.38
2023-05-24T07:18:48.551Z,59.70
2023-05-24T07:21:16.005Z,55.63
2023-05-24T07:23:42.920Z,53.77
2023-05-24T07:26:10.243Z,50.34
2023-05-24T07:28:38.908Z,48.50
2023-05-24T07:31:08.355Z,48.90
2023-05-24T07:33:36.462Z,53.32
2023-05-24T07:36:07.354Z,50.16
2023-05-24T07:38:35.103Z,48.71
2023-05-24T07:41:06.458Z,48.60
2023-05-24T07:43:33.415Z,49.32
2023-05-24T07:46:00.711Z,48.67
2023-05-24T07:48:27.714Z,51.45
2023-05-24T07:50:55.075Z,54.86
2023-05-24T07:53:23.063Z,56.79
2023-05-24T07:55:50.946Z,57.75
2023-05-24T07:58:17.925Z,60.01
2023-05-24T08:00:45.859Z,56.10
2023-05-24T08:03:14.799Z,52.88
2023-05-24T08:05:42.439Z,50.94
2023-05-24T08:08:10.430Z,50.35
2023-05-24T08:10:37.732Z,48.82
2023-05-24T08:13:05.747Z,48.32
2023-05-24T08:15:33.236Z,52.18
2023-05-24T08:18:05.526Z,54.17
2023-05-24T08:20:36.369Z,55.39
2023-05-24T08:23:05.958Z,55.15
2023-05-24T08:25:33.796Z,53.76
2023-05-24T08:28:02.734Z,54.49
2023-05-24T08:30:30.784Z,50.67
2023-05-24T08:33:00.231Z,50.71
2023-05-24T08:35:27.538Z,49.20
2023-05-24T08:37:54.933Z,48.53
2023-05-24T08:40:24.454Z,49.12
2023-05-24T08:42:52.578Z,44.98
2023-05-24T08:45:21.537Z,45.03
2023-05-24T08:47:50.462Z,45.11
2023-05-24T08:50:18.302Z,45.57
2023-05-24T08:52:46.090Z,44.43
2023-05-24T08:55:16.338Z,41.80
2023-05-24T08:57:44.667Z,42.05
2023-05-24T09:00:13.172Z,45.45
2023-05-24T09:02:41.176Z,42.89
2023-05-24T09:05:12.544Z,45.91
2023-05-24T09:07:40.859Z,49.79
2023-05-24T09:10:10.831Z,52.62
2023-05-24T09:12:39.535Z,52.65
2023-05-24T09:15:09.991Z,53.97
2023-05-24T09:17:37.916Z,53.46
2023-05-24T09:20:07.529Z,55.86
2023-05-24T09:22:37.447Z,58.39
2023-05-24T09:25:06.474Z,58.67
2023-05-24T09:27:35.184Z,55.33
2023-05-24T09:30:05.583Z,52.43
2023-05-24T09:32:32.599Z,50.76
2023-05-24T09:35:00.348Z,48.78
2023-05-24T09:37:32.117Z,46.60
2023-05-24T09:40:02.545Z,45.09
2023-05-24T09:42:30.352Z,43.96
2023-05-24T09:45:06.882Z,42.08
2023-05-24T09:47:35.074Z,41.63
2023-05-24T09:50:03.616Z,44.87
2023-05-24T09:52:31.097Z,48.76
2023-05-24T09:55:00.260Z,51.35
2023-05-24T09:57:28.306Z,51.17
2023-05-24T09:59:56.542Z,53.50
2023-05-24T10:02:26.069Z,52.66
2023-05-24T10:04:59.325Z,50.93
2023-05-24T10:07:27.214Z,52.55
2023-05-24T10:09:55.401Z,51.72
2023-05-24T10:12:23.393Z,52.15
2023-05-24T10:14:51.667Z,51.33
2023-05-24T10:17:18.789Z,55.21
2023-05-24T10:19:46.398Z,55.92
2023-05-24T10:22:14.276Z,55.32
2023-05-24T10:24:46.659Z,54.18
2023-05-24T10:27:19.492Z,55.33
2023-05-24T10:29:55.295Z,54.99
2023-05-24T10:32:24.620Z,57.14
2023-05-24T10:34:53.714Z,55.08
2023-05-24T10:37:24.900Z,51.13
2023-05-24T10:39:52.378Z,53.73
2023-05-24T10:42:19.821Z,55.41
2023-05-24T10:44:49.537Z,53.74
2023-05-24T10:47:18.176Z,53.40
2023-05-24T10:49:51.331Z,54.41
2023-05-24T10:52:21.043Z,51.93
2023-05-24T10:55:05.447Z,51.89
2023-05-24T10:57:33.194Z,51.70
2023-05-24T11:00:30.719Z,50.92
2023-05-24T11:03:04.121Z,52.54
2023-05-24T11:05:37.609Z,52.39
2023-05-24T11:08:06.937Z,53.89
2023-05-24T11:10:35.816Z,52.99
2023-05-24T11:13:03.479Z,51.81
2023-05-24T11:15:30.843Z,55.20
2023-05-24T11:18:09.307Z,53.81
2023-05-24T11:20:36.801Z,49.48
2023-05-24T11:23:04.333Z,53.17
2023-05-24T11:25:33.116Z,53.63
2023-05-24T11:28:02.023Z,54.01
2023-05-24T11:30:29.284Z,52.68
2023-05-24T11:32:57.246Z,51.37
2023-05-24T11:35:28.177Z,49.20
2023-05-24T11:37:55.154Z,48.71
2023-05-24T11:40:22.458Z,51.59
2023-05-24T11:42:52.536Z,51.65
2023-05-24T11:45:20.188Z,51.17
2023-05-24T11:47:49.189Z,50.41
2023-05-24T11:50:17.301Z,50.22
2023-05-24T11:52:44.301Z,51.12
2023-05-24T11:55:16.347Z,51.13
2023-05-24T11:57:49.327Z,52.04
2023-05-24T12:00:26.548Z,54.05
2023-05-24T12:03:03.011Z,54.96
2023-05-24T12:05:33.108Z,53.34
2023-05-24T12:08:01.940Z,54.63
2023-05-24T12:10:29.191Z,53.21
2023-05-24T12:12:57.071Z,52.81
2023-05-24T12:15:24.485Z,54.93
2023-05-24T12:17:52.395Z,51.52
2023-05-24T12:20:20.577Z,50.72
2023-05-24T12:22:54.264Z,51.85
2023-05-24T12:25:22.923Z,53.42
2023-05-24T12:27:54.463Z,52.44
2023-05-24T12:30:25.964Z,53.03
2023-05-24T12:32:55.946Z,50.78
2023-05-24T12:35:23.728Z,51.00
2023-05-24T12:37:50.904Z,51.68
2023-05-24T12:40:22.176Z,51.63
2023-05-24T12:42:56.865Z,52.28
2023-05-24T12:45:26.072Z,53.06
2023-05-24T12:47:57.656Z,52.80
2023-05-24T12:50:28.098Z,53.27
2023-05-24T12:52:55.126Z,52.86
2023-05-24T12:55:23.124Z,51.50
2023-05-24T12:57:54.389Z,53.41
2023-05-24T13:00:22.985Z,53.27
2023-05-24T13:02:52.877Z,53.55
2023-05-24T13:05:20.392Z,54.35
2023-05-24T13:07:47.386Z,53.60
2023-05-24T13:10:14.699Z,57.12
2023-05-24T13:12:41.998Z,55.92
2023-05-24T13:15:10.020Z,54.95
2023-05-24T13:17:37.042Z,55.67
2023-05-24T13:20:07.280Z,58.76
2023-05-24T13:22:35.718Z,57.54
2023-05-24T13:25:05.542Z,56.18
2023-05-24T13:27:32.534Z,56.70
2023-05-24T13:30:01.277Z,55.11
2023-05-24T13:32:28.976Z,54.34
2023-05-24T13:34:56.271Z,54.48
2023-05-24T13:37:23.753Z,52.86
2023-05-24T13:39:53.371Z,54.90
2023-05-24T13:42:21.018Z,54.26
2023-05-24T13:44:48.467Z,55.35
2023-05-24T13:47:31.105Z,57.04
2023-05-24T13:50:09.376Z,58.07
2023-05-24T13:52:37.105Z,57.87
2023-05-24T13:55:07.359Z,58.76
2023-05-24T14:00:09.104Z,59.04
2023-05-24T14:02:39.490Z,57.92
2023-05-24T14:05:24.827Z,57.81
2023-05-24T14:07:54.436Z,58.92
2023-05-24T14:10:22.065Z,58.59
2023-05-24T14:12:59.335Z,58.29
2023-05-24T14:15:31.295Z,57.68
2023-05-24T14:18:01.510Z,59.64
2023-05-24T14:20:28.923Z,57.76
2023-05-24T14:22:58.393Z,58.22
2023-05-24T14:25:25.947Z,58.42
2023-05-24T14:27:52.954Z,56.99
2023-05-24T14:30:20.251Z,57.69
2023-05-24T14:32:47.174Z,56.68
2023-05-24T14:35:14.517Z,55.74
2023-05-24T14:37:41.467Z,55.68
2023-05-24T14:40:09.156Z,55.88
2023-05-24T14:42:36.350Z,55.78
2023-05-24T14:45:06.530Z,55.18
2023-05-24T14:47:33.752Z,53.00
2023-05-24T14:50:03.648Z,54.33
2023-05-24T14:52:33.264Z,51.61
2023-05-24T14:55:03.397Z,53.17
2023-05-24T14:57:30.974Z,54.84
2023-05-24T15:00:00.679Z,54.05
2023-05-24T15:02:27.955Z,55.18
2023-05-24T15:04:55.351Z,54.15
2023-05-24T15:07:24.604Z,56.05
2023-05-24T15:09:51.906Z,55.31
2023-05-24T15:12:19.733Z,55.31
2023-05-24T15:14:49.045Z,55.15
2023-05-24T15:17:16.240Z,55.48
2023-05-24T15:19:43.556Z,54.97
2023-05-24T15:22:10.780Z,54.29
2023-05-24T15:24:38.005Z,54.13
2023-05-24T15:27:07.416Z,52.86
2023-05-24T15:29:34.679Z,52.56
2023-05-24T15:32:02.140Z,53.65
2023-05-24T15:34:29.441Z,54.76
2023-05-24T15:36:59.362Z,54.90
2023-05-24T15:39:27.046Z,56.04
2023-05-24T15:41:54.075Z,56.44
2023-05-24T15:44:23.659Z,57.42
2023-05-24T15:46:50.876Z,58.52
2023-05-24T15:49:18.233Z,57.47
2023-05-24T15:54:15.620Z,59.42
2023-05-24T15:56:42.844Z,60.32
2023-05-24T15:59:10.167Z,61.97
2023-05-24T16:01:37.404Z,62.73
2023-05-24T16:04:04.731Z,64.57
2023-05-24T16:06:31.797Z,64.77
2023-05-24T16:08:59.366Z,62.38
2023-05-24T16:11:26.285Z,62.79
2023-05-24T16:13:54.444Z,63.53
2023-05-24T16:16:23.890Z,65.09
2023-05-24T16:18:51.247Z,65.54
2023-05-24T16:21:18.165Z,66.15
2023-05-24T16:23:45.571Z,66.74
2023-05-24T16:26:12.535Z,68.53
2023-05-24T16:28:39.781Z,67.34
2023-05-24T16:31:06.831Z,66.15
2023-05-24T16:33:34.175Z,67.06
2023-05-24T16:36:03.678Z,66.42
2023-05-24T16:38:30.974Z,67.93
2023-05-24T16:40:57.912Z,68.69
2023-05-24T16:43:25.927Z,68.56
2023-05-24T16:45:55.373Z,70.78
2023-05-24T16:48:28.779Z,70.34
2023-05-24T16:50:58.551Z,69.87
2023-05-24T16:53:26.878Z,70.49
2023-05-24T16:55:57.166Z,73.05
2023-05-24T16:58:25.004Z,71.92
2023-05-24T17:00:54.668Z,73.86
2023-05-24T17:03:27.903Z,74.69
2023-05-24T17:05:56.886Z,74.69
2023-05-24T17:08:26.002Z,73.07
2023-05-24T17:10:59.156Z,74.30
2023-05-24T17:13:29.432Z,73.63
2023-05-24T17:15:57.081Z,73.97
2023-05-24T17:18:28.437Z,74.72
2023-05-24T17:20:56.457Z,75.77
2023-05-24T17:23:25.064Z,75.11
2023-05-24T17:25:52.534Z,75.50
2023-05-24T17:28:19.991Z,75.29
2023-05-24T17:30:47.500Z,76.41
2023-05-24T17:33:17.230Z,76.76
2023-05-24T17:35:44.191Z,77.44
2023-05-24T17:38:11.516Z,78.59
2023-05-24T17:40:38.505Z,78.77
2023-05-24T17:43:06.441Z,80.63
2023-05-24T17:45:33.892Z,82.87
2023-05-24T17:48:01.393Z,84.18
2023-05-24T17:50:28.593Z,84.23
2023-05-24T17:52:56.118Z,84.30
2023-05-24T17:55:23.252Z,84.80
2023-05-24T17:57:50.607Z,85.71
2023-05-24T18:00:17.738Z,86.37
2023-05-24T18:02:48.184Z,87.67
2023-05-24T18:05:16.745Z,87.99
2023-05-24T18:07:44.511Z,88.20
2023-05-24T18:10:11.610Z,91.42
2023-05-24T18:12:41.472Z,91.61
2023-05-24T18:15:08.623Z,95.88
2023-05-24T18:17:35.971Z,95.45
2023-05-24T18:20:05.828Z,97.55
2023-05-24T18:22:33.186Z,99.28
2023-05-24T18:25:02.750Z,100.00
2023-05-24T18:27:30.115Z,100.00
2023-05-24T18:30:01.978Z,100.00
2023-05-24T18:32:32.039Z,100.00
2023-05-24T18:34:59.229Z,100.00
2023-05-24T18:37:28.817Z,100.00
2023-05-24T18:39:56.038Z,100.00
2023-05-24T18:42:25.342Z,100.00
2023-05-24T18:44:52.762Z,100.00
2023-05-24T18:47:20.036Z,100.00
2023-05-24T18:49:47.020Z,100.00
2023-05-24T18:52:14.691Z,100.00
2023-05-24T18:54:44.092Z,100.00
2023-05-24T18:57:11.416Z,100.00
2023-05-24T18:59:38.831Z,100.00
2023-05-24T19:02:08.762Z,100.00
2023-05-24T19:04:35.880Z,100.00
2023-05-24T19:07:03.103Z,100.00
2023-05-24T19:09:30.184Z,100.00
2023-05-24T19:11:59.304Z,100.00
2023-05-24T19:14:31.130Z,100.00
2023-05-24T19:16:58.672Z,100.00
2023-05-24T19:19:29.166Z,100.00
2023-05-24T19:21:59.122Z,100.00
2023-05-24T19:24:28.472Z,100.00
2023-05-24T19:26:55.819Z,100.00
2023-05-24T19:29:22.775Z,100.00
2023-05-24T19:31:51.052Z,100.00
2023-05-24T19:34:18.970Z,100.00
2023-05-24T19:36:46.510Z,100.00
2023-05-24T19:39:16.974Z,100.00
2023-05-24T19:41:44.330Z,100.00
2023-05-24T19:44:11.270Z,100.00
2023-05-24T19:46:38.756Z,100.00
2023-05-24T19:49:08.258Z,100.00
2023-05-24T19:51:35.853Z,100.00
2023-05-24T19:54:03.024Z,100.00
2023-05-24T19:56:30.455Z,100.00
2023-05-24T19:58:57.475Z,100.00
2023-05-24T20:01:24.963Z,100.00
2023-05-24T20:03:51.994Z,100.00
2023-05-24T20:06:19.473Z,100.00
2023-05-24T20:08:46.815Z,100.00
2023-05-24T20:11:14.496Z,100.00
2023-05-24T20:13:43.881Z,100.00
2023-05-24T20:16:11.605Z,100.00
2023-05-24T20:18:38.698Z,100.00
2023-05-24T20:21:05.927Z,100.00
2023-05-24T20:23:32.919Z,100.00
2023-05-24T20:26:00.923Z,100.00
2023-05-24T20:28:31.871Z,100.00
2023-05-24T20:30:59.624Z,100.00
2023-05-24T20:33:26.691Z,100.00
2023-05-24T20:35:54.665Z,100.00
2023-05-24T20:38:24.477Z,100.00
2023-05-24T20:40:51.919Z,100.00
2023-05-24T20:43:19.172Z,100.00
2023-05-24T20:45:46.657Z,100.00
2023-05-24T20:48:13.785Z,100.00
2023-05-24T20:50:41.171Z,100.00
2023-05-24T20:53:08.138Z,100.00
2023-05-24T20:55:37.652Z,100.00
2023-05-24T20:58:04.899Z,100.00
2023-05-24T21:00:32.194Z,100.00
2023-05-24T21:03:05.419Z,100.00
2023-05-24T21:05:36.414Z,100.00
2023-05-24T21:08:04.173Z,100.00
2023-05-24T21:10:32.386Z,100.00
2023-05-24T21:12:59.710Z,100.00
2023-05-24T21:15:27.065Z,100.00
2023-05-24T21:17:54.149Z,100.00
2023-05-24T21:20:21.643Z,100.00
2023-05-24T21:22:48.804Z,100.00
2023-05-24T21:25:18.433Z,100.00
2023-05-24T21:27:45.394Z,100.00
2023-05-24T21:30:13.029Z,100.00
2023-05-24T21:32:40.072Z,100.00
2023-05-24T21:35:07.701Z,100.00
2023-05-24T21:37:34.599Z,100.00
2023-05-24T21:40:05.341Z,100.00
2023-05-24T21:42:32.319Z,100.00
2023-05-24T21:44:59.689Z,100.00
2023-05-24T21:47:26.742Z,100.00
2023-05-24T21:49:55.008Z,100.00
2023-05-24T21:52:23.078Z,100.00
2023-05-24T21:54:50.470Z,100.00
2023-05-24T21:57:17.621Z,100.00
2023-05-24T21:59:45.094Z,100.00
2023-05-24T22:02:14.299Z,100.00
2023-05-24T22:04:41.837Z,100.00
2023-05-24T22:07:08.759Z,100.00
2023-05-24T22:09:38.727Z,100.00
2023-05-24T22:12:08.125Z,100.00
2023-05-24T22:14:35.348Z,100.00
2023-05-24T22:17:04.874Z,100.00
2023-05-24T22:19:39.549Z,100.00
2023-05-24T22:22:12.616Z,100.00
2023-05-24T22:24:40.958Z,100.00
2023-05-24T22:27:13.678Z,100.00
2023-05-24T22:29:43.335Z,100.00
2023-05-24T22:32:10.366Z,100.00
2023-05-24T22:34:37.674Z,100.00
2023-05-24T22:37:04.855Z,100.00
2023-05-24T22:39:32.391Z,100.00
2023-05-24T22:41:59.392Z,100.00
2023-05-24T22:44:26.877Z,100.00
2023-05-24T22:46:56.568Z,100.00
2023-05-24T22:49:23.824Z,100.00
2023-05-24T22:51:51.283Z,100.00
2023-05-24T22:54:18.567Z,100.00
2023-05-24T22:56:46.322Z,100.00
2023-05-24T22:59:13.571Z,100.00
2023-05-24T23:01:40.662Z,100.00
2023-05-24T23:04:21.320Z,100.00
2023-05-24T23:06:52.668Z,100.00
2023-05-24T23:09:29.103Z,100.00
2023-05-24T23:11:58.458Z,100.00
2023-05-24T23:14:26.091Z,100.00
2023-05-24T23:16:53.057Z,100.00
2023-05-24T23:19:20.287Z,100.00
2023-05-24T23:21:47.598Z,100.00
2023-05-24T23:24:15.958Z,100.00
2023-05-24T23:26:43.090Z,100.00
2023-05-24T23:29:10.652Z,100.00
2023-05-24T23:31:37.964Z,100.00
2023-05-24T23:34:05.882Z,100.00
2023-05-24T23:36:33.005Z,100.00
2023-05-24T23:39:00.277Z,100.00
2023-05-24T23:41:27.323Z,100.00
2023-05-24T23:43:57.019Z,100.00
2023-05-24T23:46:23.957Z,100.00
2023-05-24T23:48:51.261Z,100.00
2023-05-24T23:51:19.614Z,100.00
2023-05-24T23:53:46.996Z,100.00
2023-05-24T23:56:13.959Z,100.00
2023-05-24T23:58:42.057Z,100.00
